Time;durP1;ratioP1;P1;durP2;ratioP2;P2;SDS_P1;SDS_P2;PMS_P1;PMS_P2;Temp;Humidity;BMP_temperature;BMP_pressure;BME280_temperature;BME280_humidity;BME280_pressure;Samples;Min_cycle;Max_cycle;Signal;HPM_P1;HPM_P2
2020/12/21 00:02:13;;;;;;;71.13;31.30;;;;;;;;;;4979402;28;20183;-79
2020/12/21 00:04:40;;;;;;;78.30;33.50;;;;;;;;;;4978713;28;20616;-79
2020/12/21 00:07:06;;;;;;;75.10;32.73;;;;;;;;;;4978671;28;20694;-79
2020/12/21 00:09:32;;;;;;;69.50;31.70;;;;;;;;;;4978399;28;20172;-77
2020/12/21 00:11:58;;;;;;;68.90;31.00;;;;;;;;;;4978013;28;20236;-77
2020/12/21 00:14:25;;;;;;;72.40;30.93;;;;;;;;;;4978842;28;20206;-77
2020/12/21 00:16:51;;;;;;;70.27;31.33;;;;;;;;;;4978834;28;20183;-77
2020/12/21 00:19:21;;;;;;;66.80;32.30;;;;;;;;;;4978893;28;20181;-78
2020/12/21 00:21:48;;;;;;;72.57;31.80;;;;;;;;;;4971416;28;20218;-78
2020/12/21 00:24:14;;;;;;;76.57;31.67;;;;;;;;;;4980343;28;20200;-79
2020/12/21 00:26:44;;;;;;;70.20;30.93;;;;;;;;;;4983713;28;20184;-79
2020/12/21 00:29:10;;;;;;;64.93;30.43;;;;;;;;;;4979470;28;20239;-78
2020/12/21 00:31:36;;;;;;;66.60;29.90;;;;;;;;;;4978642;28;20211;-79
2020/12/21 00:34:04;;;;;;;70.70;32.07;;;;;;;;;;4978306;28;20193;-79
2020/12/21 00:36:31;;;;;;;66.10;31.03;;;;;;;;;;4978186;28;20618;-79
2020/12/21 00:38:57;;;;;;;65.63;30.13;;;;;;;;;;4978786;28;20579;-78
2020/12/21 00:41:24;;;;;;;67.33;31.03;;;;;;;;;;4978348;28;20201;-78
2020/12/21 00:43:50;;;;;;;73.97;33.47;;;;;;;;;;4978406;28;20197;-78
2020/12/21 00:46:18;;;;;;;63.30;30.57;;;;;;;;;;4978773;28;20174;-78
2020/12/21 00:48:45;;;;;;;65.83;32.73;;;;;;;;;;4978540;28;20188;-78
2020/12/21 00:51:13;;;;;;;66.80;31.53;;;;;;;;;;4977615;28;20200;-79
2020/12/21 00:53:39;;;;;;;74.50;32.17;;;;;;;;;;4978804;28;20637;-79
2020/12/21 00:56:06;;;;;;;68.77;31.03;;;;;;;;;;4977832;28;20204;-79
2020/12/21 00:58:32;;;;;;;69.73;32.57;;;;;;;;;;4978185;28;20231;-78
2020/12/21 01:00:59;;;;;;;69.47;31.30;;;;;;;;;;4986805;23;20237;-80
2020/12/21 01:03:25;;;;;;;66.73;32.17;;;;;;;;;;4965451;28;20215;-81
2020/12/21 01:05:53;;;;;;;73.23;33.47;;;;;;;;;;4965515;28;20169;-80
2020/12/21 01:08:20;;;;;;;72.27;33.33;;;;;;;;;;4972373;28;20581;-81
2020/12/21 01:10:47;;;;;;;77.00;34.53;;;;;;;;;;4959368;28;20240;-80
2020/12/21 01:13:13;;;;;;;92.47;40.17;;;;;;;;;;4957949;28;20177;-80
2020/12/21 01:15:39;;;;;;;69.90;31.43;;;;;;;;;;4959766;28;20268;-80
2020/12/21 01:18:05;;;;;;;63.67;30.00;;;;;;;;;;4959029;28;20185;-80
2020/12/21 01:20:31;;;;;;;66.33;31.70;;;;;;;;;;4959300;28;20201;-81
2020/12/21 01:22:57;;;;;;;83.17;36.67;;;;;;;;;;4958409;28;20547;-80
2020/12/21 01:25:23;;;;;;;76.77;34.10;;;;;;;;;;4959403;28;20220;-80
2020/12/21 01:27:49;;;;;;;73.57;33.60;;;;;;;;;;4958919;28;20176;-80
2020/12/21 01:30:15;;;;;;;68.17;32.30;;;;;;;;;;4959948;28;20542;-81
2020/12/21 01:32:42;;;;;;;74.97;34.30;;;;;;;;;;4958761;28;20181;-80
2020/12/21 01:35:08;;;;;;;67.37;30.77;;;;;;;;;;4959968;28;20195;-81
2020/12/21 01:37:34;;;;;;;63.13;30.37;;;;;;;;;;4959562;28;20268;-81
2020/12/21 01:40:01;;;;;;;63.47;31.13;;;;;;;;;;4958175;28;20208;-80
2020/12/21 01:42:27;;;;;;;64.20;29.73;;;;;;;;;;4957960;28;20208;-80
2020/12/21 01:44:53;;;;;;;68.63;31.30;;;;;;;;;;4959491;28;20211;-80
2020/12/21 01:47:20;;;;;;;59.10;28.50;;;;;;;;;;4960048;28;20720;-80
2020/12/21 01:49:46;;;;;;;54.87;28.00;;;;;;;;;;4959963;28;20210;-80
2020/12/21 01:52:15;;;;;;;56.80;28.13;;;;;;;;;;4971178;28;20699;-80
2020/12/21 01:54:42;;;;;;;66.63;32.73;;;;;;;;;;4961054;28;20196;-80
2020/12/21 01:57:08;;;;;;;62.07;30.43;;;;;;;;;;4957714;28;20189;-80
2020/12/21 01:59:34;;;;;;;57.30;29.17;;;;;;;;;;4958079;28;20232;-80
2020/12/21 02:02:01;;;;;;;60.67;29.93;;;;;;;;;;4957391;28;20252;-80
2020/12/21 02:04:27;;;;;;;62.33;30.53;;;;;;;;;;4959138;28;20667;-80
2020/12/21 02:06:54;;;;;;;66.73;31.97;;;;;;;;;;4958186;28;20209;-80
2020/12/21 02:09:20;;;;;;;61.67;29.83;;;;;;;;;;4959221;28;20261;-80
2020/12/21 02:11:47;;;;;;;62.23;30.03;;;;;;;;;;4959609;28;20185;-80
2020/12/21 02:14:13;;;;;;;62.50;31.33;;;;;;;;;;4959496;28;20185;-80
2020/12/21 02:16:40;;;;;;;57.20;28.80;;;;;;;;;;4959210;28;20201;-80
2020/12/21 02:19:05;;;;;;;65.97;30.97;;;;;;;;;;4957896;28;20196;-80
2020/12/21 02:21:32;;;;;;;59.23;30.03;;;;;;;;;;4959552;28;20205;-81
2020/12/21 02:23:58;;;;;;;65.43;30.87;;;;;;;;;;4957485;29;20345;-80
2020/12/21 02:26:24;;;;;;;63.20;29.80;;;;;;;;;;4958145;28;20185;-80
2020/12/21 02:28:51;;;;;;;64.43;30.87;;;;;;;;;;4958757;28;20261;-80
2020/12/21 02:31:18;;;;;;;57.73;29.93;;;;;;;;;;4957769;28;20197;-80
2020/12/21 02:33:45;;;;;;;57.27;29.23;;;;;;;;;;4958953;28;20200;-80
2020/12/21 02:36:11;;;;;;;66.10;31.10;;;;;;;;;;4967963;28;20184;-80
2020/12/21 02:38:37;;;;;;;60.13;29.73;;;;;;;;;;4961552;28;20285;-80
2020/12/21 02:41:04;;;;;;;57.43;28.90;;;;;;;;;;4958979;28;20209;-81
2020/12/21 02:43:30;;;;;;;59.50;29.33;;;;;;;;;;4959462;28;20231;-80
2020/12/21 02:45:56;;;;;;;60.50;29.63;;;;;;;;;;4958982;28;20560;-80
2020/12/21 02:48:22;;;;;;;56.70;28.63;;;;;;;;;;4951719;28;20197;-79
2020/12/21 02:50:49;;;;;;;56.77;28.97;;;;;;;;;;4953631;28;20197;-79
2020/12/21 02:53:19;;;;;;;65.50;32.33;;;;;;;;;;4955366;28;20208;-79
2020/12/21 02:55:45;;;;;;;74.20;33.40;;;;;;;;;;4955577;28;20210;-79
2020/12/21 02:58:11;;;;;;;73.63;34.13;;;;;;;;;;4958259;28;20182;-80
2020/12/21 03:00:37;;;;;;;62.33;31.20;;;;;;;;;;4958390;28;20208;-80
2020/12/21 03:03:04;;;;;;;69.77;31.70;;;;;;;;;;4958071;28;20193;-80
2020/12/21 03:05:30;;;;;;;64.97;31.23;;;;;;;;;;4969435;28;20300;-80
2020/12/21 03:07:57;;;;;;;68.97;31.67;;;;;;;;;;4958828;28;20216;-80
2020/12/21 03:10:23;;;;;;;62.43;30.47;;;;;;;;;;4958800;28;20190;-80
2020/12/21 03:12:49;;;;;;;62.20;29.83;;;;;;;;;;4959163;28;20687;-79
2020/12/21 03:15:16;;;;;;;60.53;29.93;;;;;;;;;;4962098;28;20223;-80
2020/12/21 03:17:42;;;;;;;65.60;30.53;;;;;;;;;;4962698;28;20712;-80
2020/12/21 03:20:08;;;;;;;61.40;29.30;;;;;;;;;;4975785;28;20213;-80
2020/12/21 03:22:34;;;;;;;61.50;29.97;;;;;;;;;;4970249;28;20172;-80
2020/12/21 03:25:00;;;;;;;55.10;28.73;;;;;;;;;;4961832;28;20242;-80
2020/12/21 03:27:27;;;;;;;57.10;27.87;;;;;;;;;;4961430;28;20178;-79
2020/12/21 03:29:53;;;;;;;51.67;27.20;;;;;;;;;;4961788;28;20204;-79
2020/12/21 03:32:19;;;;;;;53.93;27.93;;;;;;;;;;4961598;28;20178;-79
2020/12/21 03:34:45;;;;;;;57.00;27.27;;;;;;;;;;4961880;28;20199;-80
2020/12/21 03:37:11;;;;;;;57.83;28.63;;;;;;;;;;4962311;28;20193;-80
2020/12/21 03:39:37;;;;;;;60.13;30.80;;;;;;;;;;4961729;28;20284;-80
2020/12/21 03:42:04;;;;;;;64.13;30.50;;;;;;;;;;4960147;28;20189;-80
2020/12/21 03:44:30;;;;;;;73.13;31.90;;;;;;;;;;4961685;28;20786;-80
2020/12/21 03:46:57;;;;;;;70.67;32.60;;;;;;;;;;4960850;28;20177;-80
2020/12/21 03:49:23;;;;;;;70.30;32.07;;;;;;;;;;4961921;28;20181;-79
2020/12/21 03:51:49;;;;;;;72.27;32.40;;;;;;;;;;4973653;28;20176;-79
2020/12/21 03:54:15;;;;;;;67.97;31.20;;;;;;;;;;4965921;28;20181;-79
2020/12/21 03:56:45;;;;;;;73.83;32.13;;;;;;;;;;4972785;28;20245;-80
2020/12/21 03:59:12;;;;;;;67.20;31.30;;;;;;;;;;4975276;28;20208;-80
2020/12/21 04:01:38;;;;;;;73.20;32.53;;;;;;;;;;4977965;28;20204;-80
2020/12/21 04:04:06;;;;;;;74.73;34.13;;;;;;;;;;4962395;28;20283;-80
2020/12/21 04:06:32;;;;;;;80.33;32.30;;;;;;;;;;4960675;28;20244;-81
2020/12/21 04:08:58;;;;;;;71.97;31.37;;;;;;;;;;4962239;28;20721;-80
2020/12/21 04:11:24;;;;;;;66.60;30.53;;;;;;;;;;4960132;28;20205;-80
2020/12/21 04:13:50;;;;;;;77.27;32.63;;;;;;;;;;4962133;28;20243;-80
2020/12/21 04:16:16;;;;;;;70.50;30.70;;;;;;;;;;4961156;28;20597;-80
2020/12/21 04:18:43;;;;;;;71.47;31.37;;;;;;;;;;4961402;28;20270;-80
2020/12/21 04:21:12;;;;;;;75.20;32.60;;;;;;;;;;4961337;28;20580;-80
2020/12/21 04:23:38;;;;;;;73.93;32.47;;;;;;;;;;4960616;28;20260;-80
2020/12/21 04:26:08;;;;;;;72.13;31.20;;;;;;;;;;4958513;28;20193;-80
2020/12/21 04:28:37;;;;;;;77.50;33.03;;;;;;;;;;4960721;28;20656;-80
2020/12/21 04:31:04;;;;;;;75.87;31.93;;;;;;;;;;4961041;28;20704;-80
2020/12/21 04:33:31;;;;;;;67.93;31.23;;;;;;;;;;4961390;28;20216;-80
2020/12/21 04:35:57;;;;;;;72.60;29.30;;;;;;;;;;4961281;28;20551;-81
2020/12/21 04:38:25;;;;;;;63.17;29.37;;;;;;;;;;4960738;28;20212;-80
2020/12/21 04:40:51;;;;;;;73.73;31.97;;;;;;;;;;4960474;28;20260;-80
2020/12/21 04:43:17;;;;;;;71.57;30.83;;;;;;;;;;4960307;28;20276;-80
2020/12/21 04:45:44;;;;;;;74.13;31.13;;;;;;;;;;4974294;28;20190;-80
2020/12/21 04:48:13;;;;;;;72.17;31.83;;;;;;;;;;4961077;28;20177;-80
2020/12/21 04:50:40;;;;;;;72.67;31.90;;;;;;;;;;4960169;28;20205;-80
2020/12/21 04:53:07;;;;;;;75.80;32.23;;;;;;;;;;4960546;28;20184;-80
2020/12/21 04:55:34;;;;;;;73.50;32.73;;;;;;;;;;4960681;28;20575;-80
2020/12/21 04:58:00;;;;;;;82.47;31.00;;;;;;;;;;4965297;28;20184;-80
2020/12/21 05:00:28;;;;;;;75.77;31.67;;;;;;;;;;4965607;28;20227;-80
2020/12/21 05:02:54;;;;;;;79.10;32.47;;;;;;;;;;4955921;28;20225;-80
2020/12/21 05:05:28;;;;;;;78.70;31.60;;;;;;;;;;4957547;28;20272;-80
2020/12/21 05:07:54;;;;;;;75.73;31.97;;;;;;;;;;4956949;28;20177;-81
2020/12/21 05:10:20;;;;;;;76.03;31.23;;;;;;;;;;4958673;28;20193;-81
2020/12/21 05:12:47;;;;;;;66.73;31.17;;;;;;;;;;4959519;28;20189;-80
2020/12/21 05:15:13;;;;;;;79.00;31.47;;;;;;;;;;4957617;28;20260;-80
2020/12/21 05:17:39;;;;;;;83.27;33.47;;;;;;;;;;4959813;28;20582;-80
2020/12/21 05:20:06;;;;;;;78.20;31.13;;;;;;;;;;4962051;28;20276;-79
2020/12/21 05:22:32;;;;;;;79.53;32.03;;;;;;;;;;4970568;28;20173;-80
2020/12/21 05:25:05;;;;;;;71.10;32.17;;;;;;;;;;4959152;28;20745;-80
2020/12/21 05:27:32;;;;;;;75.17;31.33;;;;;;;;;;4959835;28;20219;-80
2020/12/21 05:29:58;;;;;;;67.13;29.97;;;;;;;;;;4959190;28;20668;-79
2020/12/21 05:32:24;;;;;;;70.13;30.20;;;;;;;;;;4959315;28;20185;-80
2020/12/21 05:34:51;;;;;;;74.47;31.53;;;;;;;;;;4958830;28;20189;-79
2020/12/21 05:37:21;;;;;;;68.77;29.40;;;;;;;;;;4958236;28;20637;-80
2020/12/21 05:39:54;;;;;;;71.17;30.83;;;;;;;;;;4958063;28;20204;-80
2020/12/21 05:42:23;;;;;;;74.60;30.00;;;;;;;;;;4957472;28;20184;-80
2020/12/21 05:44:55;;;;;;;66.93;27.77;;;;;;;;;;4958919;28;20208;-80
2020/12/21 05:47:22;;;;;;;68.50;29.57;;;;;;;;;;4972636;28;20229;-80
2020/12/21 05:49:53;;;;;;;70.07;29.63;;;;;;;;;;4956986;28;20281;-80
2020/12/21 05:52:38;;;;;;;65.63;28.93;;;;;;;;;;4958699;28;20177;-81
2020/12/21 05:55:04;;;;;;;66.00;28.70;;;;;;;;;;4958931;28;20189;-80
2020/12/21 05:57:31;;;;;;;66.13;30.27;;;;;;;;;;4964169;28;20268;-80
2020/12/21 06:00:01;;;;;;;69.07;30.77;;;;;;;;;;4958647;28;20216;-80
2020/12/21 06:02:30;;;;;;;67.30;29.67;;;;;;;;;;4958459;28;20191;-80
2020/12/21 06:04:59;;;;;;;67.40;30.17;;;;;;;;;;4959674;28;20220;-80
2020/12/21 06:07:28;;;;;;;71.60;31.80;;;;;;;;;;4958555;28;20210;-81
2020/12/21 06:09:57;;;;;;;75.70;35.00;;;;;;;;;;4959113;28;20545;-80
2020/12/21 06:12:23;;;;;;;79.37;34.17;;;;;;;;;;4958240;28;20184;-80
2020/12/21 06:14:52;;;;;;;83.23;37.23;;;;;;;;;;4958557;28;20182;-80
2020/12/21 06:17:18;;;;;;;88.60;33.90;;;;;;;;;;4957188;28;20192;-79
2020/12/21 06:19:45;;;;;;;78.77;30.30;;;;;;;;;;4957620;28;20217;-80
2020/12/21 06:22:11;;;;;;;80.23;30.63;;;;;;;;;;4955728;28;20212;-80
2020/12/21 06:24:40;;;;;;;80.77;30.00;;;;;;;;;;4944595;28;20205;-80
2020/12/21 06:27:13;;;;;;;92.43;29.63;;;;;;;;;;4946337;28;20650;-80
2020/12/21 06:29:39;;;;;;;72.70;28.90;;;;;;;;;;4957096;28;20208;-79
2020/12/21 06:32:06;;;;;;;81.47;29.70;;;;;;;;;;4956936;28;20181;-81
2020/12/21 06:34:33;;;;;;;66.33;29.33;;;;;;;;;;4956847;28;20181;-80
2020/12/21 06:37:06;;;;;;;60.03;29.13;;;;;;;;;;4957074;28;20209;-80
2020/12/21 06:39:34;;;;;;;64.57;29.70;;;;;;;;;;4958583;28;20223;-80
2020/12/21 06:42:04;;;;;;;71.10;29.57;;;;;;;;;;4958882;28;20181;-80
2020/12/21 06:44:31;;;;;;;75.30;31.23;;;;;;;;;;4958873;28;20205;-80
2020/12/21 06:46:58;;;;;;;76.77;32.80;;;;;;;;;;4957950;28;20192;-80
2020/12/21 06:49:25;;;;;;;87.90;32.03;;;;;;;;;;4959934;28;20265;-80
2020/12/21 06:51:51;;;;;;;78.30;31.93;;;;;;;;;;4962430;28;20181;-79
2020/12/21 06:54:18;;;;;;;74.43;33.27;;;;;;;;;;4959941;28;20715;-80
2020/12/21 06:56:48;;;;;;;82.93;33.57;;;;;;;;;;4952853;28;20241;-80
2020/12/21 06:59:16;;;;;;;77.37;31.67;;;;;;;;;;4948120;28;20208;-80
2020/12/21 07:01:44;;;;;;;77.00;33.03;;;;;;;;;;4965336;23;20312;-80
2020/12/21 07:04:15;;;;;;;69.47;31.63;;;;;;;;;;4942776;29;20243;-79
2020/12/21 07:06:41;;;;;;;73.43;30.70;;;;;;;;;;4944964;29;20181;-79
2020/12/21 07:09:08;;;;;;;79.07;32.47;;;;;;;;;;4943347;29;20214;-79
2020/12/21 07:11:35;;;;;;;66.13;29.13;;;;;;;;;;4952168;28;20196;-80
2020/12/21 07:14:01;;;;;;;77.47;31.67;;;;;;;;;;4928280;29;20695;-79
2020/12/21 07:16:27;;;;;;;81.13;31.43;;;;;;;;;;4926912;29;20197;-78
2020/12/21 07:18:53;;;;;;;85.90;31.93;;;;;;;;;;4940212;29;20559;-80
2020/12/21 07:21:20;;;;;;;79.73;32.27;;;;;;;;;;4938093;29;20579;-78
2020/12/21 07:23:46;;;;;;;69.77;29.73;;;;;;;;;;4941645;29;20202;-79
2020/12/21 07:26:15;;;;;;;62.00;28.83;;;;;;;;;;4941677;29;20267;-79
2020/12/21 07:28:46;;;;;;;62.63;29.33;;;;;;;;;;4941791;29;20188;-79
2020/12/21 07:31:14;;;;;;;67.17;29.80;;;;;;;;;;4942394;29;20230;-80
2020/12/21 07:33:58;;;;;;;59.57;28.43;;;;;;;;;;4941090;29;20186;-79
2020/12/21 07:36:26;;;;;;;68.30;30.60;;;;;;;;;;4940664;29;20650;-79
2020/12/21 07:38:52;;;;;;;68.63;30.97;;;;;;;;;;4942968;29;20558;-80
2020/12/21 07:41:23;;;;;;;69.73;29.93;;;;;;;;;;4933291;29;20673;-79
2020/12/21 07:44:11;;;;;;;63.93;29.90;;;;;;;;;;4932061;29;20678;-79
2020/12/21 07:46:45;;;;;;;64.83;29.37;;;;;;;;;;4916790;29;20213;-79
2020/12/21 07:49:12;;;;;;;65.47;30.13;;;;;;;;;;4932157;29;20189;-80
2020/12/21 07:51:43;;;;;;;68.30;30.10;;;;;;;;;;4943167;29;20696;-81
2020/12/21 07:54:11;;;;;;;58.67;29.60;;;;;;;;;;4944836;29;20190;-79
2020/12/21 07:56:37;;;;;;;57.73;29.07;;;;;;;;;;4941717;29;20235;-80
2020/12/21 07:59:11;;;;;;;49.57;26.73;;;;;;;;;;4936743;29;20185;-80
2020/12/21 08:01:37;;;;;;;51.23;26.83;;;;;;;;;;4942154;29;20314;-80
2020/12/21 08:04:13;;;;;;;51.40;27.77;;;;;;;;;;4940683;29;20201;-80
2020/12/21 08:06:39;;;;;;;62.50;28.73;;;;;;;;;;4942169;29;20186;-79
2020/12/21 08:09:09;;;;;;;65.80;29.50;;;;;;;;;;4940388;29;20676;-79
2020/12/21 08:11:36;;;;;;;48.27;26.07;;;;;;;;;;4941325;29;20224;-79
2020/12/21 08:14:03;;;;;;;58.53;26.80;;;;;;;;;;4941694;29;20197;-79
2020/12/21 08:16:31;;;;;;;57.37;27.17;;;;;;;;;;4941131;29;20214;-79
2020/12/21 08:18:58;;;;;;;66.10;30.70;;;;;;;;;;4939522;29;20221;-80
2020/12/21 08:21:24;;;;;;;58.33;28.57;;;;;;;;;;4940559;29;20304;-79
2020/12/21 08:24:00;;;;;;;60.23;30.30;;;;;;;;;;4939290;29;20257;-79
2020/12/21 08:26:27;;;;;;;61.43;30.00;;;;;;;;;;4940006;29;20205;-80
2020/12/21 08:28:54;;;;;;;61.17;29.03;;;;;;;;;;4940795;29;20182;-79
2020/12/21 08:31:21;;;;;;;55.97;26.53;;;;;;;;;;4940538;29;20209;-79
2020/12/21 08:33:57;;;;;;;67.43;30.43;;;;;;;;;;4940992;29;20217;-80
2020/12/21 08:36:34;;;;;;;70.53;30.27;;;;;;;;;;4941544;29;20191;-79
2020/12/21 08:39:05;;;;;;;76.73;31.23;;;;;;;;;;4940786;29;20201;-79
2020/12/21 08:41:45;;;;;;;84.90;33.60;;;;;;;;;;4940417;29;20203;-80
2020/12/21 08:44:17;;;;;;;89.60;33.40;;;;;;;;;;4939890;29;20214;-78
2020/12/21 08:46:44;;;;;;;78.03;32.57;;;;;;;;;;4940887;29;20238;-79
2020/12/21 08:49:10;;;;;;;88.33;34.30;;;;;;;;;;4940907;29;20199;-79
2020/12/21 08:51:36;;;;;;;80.20;33.77;;;;;;;;;;4941164;29;20222;-80
2020/12/21 08:54:02;;;;;;;82.67;33.70;;;;;;;;;;4935752;29;20186;-79
2020/12/21 08:56:28;;;;;;;63.57;29.57;;;;;;;;;;4938614;29;20590;-80
2020/12/21 08:58:55;;;;;;;62.63;26.90;;;;;;;;;;4949778;29;20195;-79
2020/12/21 09:01:21;;;;;;;60.30;26.07;;;;;;;;;;4940299;29;20285;-78
2020/12/21 09:03:47;;;;;;;61.40;27.40;;;;;;;;;;4927793;29;20686;-79
2020/12/21 09:06:21;;;;;;;63.00;27.10;;;;;;;;;;4939022;29;20320;-79
2020/12/21 09:08:48;;;;;;;70.20;28.53;;;;;;;;;;4940676;29;20190;-79
2020/12/21 09:11:23;;;;;;;66.43;29.30;;;;;;;;;;4939548;29;20277;-79
2020/12/21 09:13:49;;;;;;;76.87;29.50;;;;;;;;;;4938864;29;20656;-78
2020/12/21 09:16:23;;;;;;;69.77;28.80;;;;;;;;;;4938919;29;20187;-79
2020/12/21 09:18:50;;;;;;;74.20;30.47;;;;;;;;;;4940556;29;20209;-79
2020/12/21 09:21:23;;;;;;;79.07;30.27;;;;;;;;;;4940071;29;20237;-80
2020/12/21 09:23:50;;;;;;;77.53;29.77;;;;;;;;;;4939903;29;20258;-79
2020/12/21 09:26:17;;;;;;;79.37;30.77;;;;;;;;;;4939706;29;20219;-78
2020/12/21 09:28:44;;;;;;;79.27;28.60;;;;;;;;;;4938190;29;20191;-79
2020/12/21 09:31:10;;;;;;;92.40;29.67;;;;;;;;;;4939298;29;20209;-79
2020/12/21 09:33:37;;;;;;;68.27;27.27;;;;;;;;;;4939817;29;20546;-79
2020/12/21 09:36:03;;;;;;;65.10;27.43;;;;;;;;;;4938470;29;20514;-80
2020/12/21 09:38:30;;;;;;;64.47;27.23;;;;;;;;;;4940820;29;20186;-79
2020/12/21 09:40:56;;;;;;;64.90;26.57;;;;;;;;;;4938774;29;20205;-80
2020/12/21 09:43:22;;;;;;;57.23;26.00;;;;;;;;;;4938739;29;20186;-79
2020/12/21 09:45:48;;;;;;;64.30;27.90;;;;;;;;;;4939043;29;20184;-80
2020/12/21 09:48:14;;;;;;;65.97;27.43;;;;;;;;;;4939133;29;20669;-79
2020/12/21 09:50:40;;;;;;;62.87;27.20;;;;;;;;;;4939751;29;20207;-79
2020/12/21 09:53:06;;;;;;;66.23;28.37;;;;;;;;;;4940186;29;20213;-79
2020/12/21 09:55:32;;;;;;;69.73;27.57;;;;;;;;;;4938324;29;20262;-80
2020/12/21 09:57:58;;;;;;;58.27;27.57;;;;;;;;;;4930101;29;20213;-80
2020/12/21 10:00:24;;;;;;;56.67;27.83;;;;;;;;;;4938237;29;20225;-79
2020/12/21 10:02:50;;;;;;;64.73;27.77;;;;;;;;;;4940262;29;20561;-80
2020/12/21 10:05:17;;;;;;;57.97;26.80;;;;;;;;;;4940608;29;20297;-79
2020/12/21 10:07:43;;;;;;;57.80;26.97;;;;;;;;;;4938566;29;20608;-79
2020/12/21 10:10:09;;;;;;;56.37;25.20;;;;;;;;;;4939539;29;20274;-79
2020/12/21 10:12:35;;;;;;;54.77;24.70;;;;;;;;;;4939889;29;20183;-79
2020/12/21 10:15:01;;;;;;;55.27;25.77;;;;;;;;;;4939759;29;20210;-80
2020/12/21 10:17:28;;;;;;;50.03;23.70;;;;;;;;;;4939718;29;20706;-79
2020/12/21 10:19:54;;;;;;;55.23;26.37;;;;;;;;;;4940236;29;20220;-79
2020/12/21 10:22:20;;;;;;;56.43;25.70;;;;;;;;;;4939165;29;20555;-78
2020/12/21 10:24:46;;;;;;;51.77;25.33;;;;;;;;;;4939332;29;20209;-79
2020/12/21 10:27:12;;;;;;;47.17;23.03;;;;;;;;;;4939020;29;20604;-79
2020/12/21 10:29:39;;;;;;;48.87;23.87;;;;;;;;;;4938832;29;20193;-79
2020/12/21 10:32:05;;;;;;;46.00;24.13;;;;;;;;;;4937486;29;20260;-77
2020/12/21 10:34:31;;;;;;;43.67;22.53;;;;;;;;;;4939137;29;20208;-79
2020/12/21 10:36:57;;;;;;;43.90;23.97;;;;;;;;;;4937022;29;20277;-79
2020/12/21 10:39:23;;;;;;;49.30;24.40;;;;;;;;;;4938344;29;20217;-79
2020/12/21 10:41:49;;;;;;;45.97;24.10;;;;;;;;;;4939478;29;20229;-79
2020/12/21 10:44:16;;;;;;;50.63;24.30;;;;;;;;;;4938308;29;20241;-80
2020/12/21 10:46:42;;;;;;;48.77;24.00;;;;;;;;;;4936703;29;20720;-78
2020/12/21 10:49:09;;;;;;;45.27;23.10;;;;;;;;;;4929944;29;20692;-80
2020/12/21 10:51:35;;;;;;;45.20;23.43;;;;;;;;;;4938851;29;20225;-80
2020/12/21 10:54:02;;;;;;;48.97;23.90;;;;;;;;;;4938338;29;20599;-79
2020/12/21 10:56:28;;;;;;;46.07;25.03;;;;;;;;;;4935316;29;20264;-80
2020/12/21 10:58:55;;;;;;;48.30;25.77;;;;;;;;;;4932680;29;20615;-80
2020/12/21 11:01:21;;;;;;;42.03;21.80;;;;;;;;;;4937709;29;20221;-80
2020/12/21 11:03:47;;;;;;;43.63;22.87;;;;;;;;;;4937653;29;20345;-80
2020/12/21 11:06:19;;;;;;;37.93;22.40;;;;;;;;;;4933907;29;20267;-79
2020/12/21 11:08:46;;;;;;;37.53;20.73;;;;;;;;;;4929465;29;20208;-80
2020/12/21 11:11:12;;;;;;;35.57;20.63;;;;;;;;;;4937840;29;20673;-80
2020/12/21 11:13:41;;;;;;;41.70;20.70;;;;;;;;;;4937610;29;20182;-80
2020/12/21 11:16:09;;;;;;;40.17;21.73;;;;;;;;;;4937925;29;20215;-80
2020/12/21 11:18:35;;;;;;;41.27;21.27;;;;;;;;;;4937818;29;20231;-80
2020/12/21 11:21:01;;;;;;;34.93;19.93;;;;;;;;;;4928322;29;20207;-79
2020/12/21 11:23:27;;;;;;;41.30;20.00;;;;;;;;;;4933000;29;20196;-80
2020/12/21 11:25:52;;;;;;;39.83;21.03;;;;;;;;;;4937985;29;20182;-80
2020/12/21 11:28:18;;;;;;;37.37;21.20;;;;;;;;;;4936454;29;20249;-80
2020/12/21 11:30:45;;;;;;;41.40;22.57;;;;;;;;;;4938049;29;20237;-80
2020/12/21 11:33:12;;;;;;;45.43;23.27;;;;;;;;;;4937826;29;20193;-80
2020/12/21 11:35:38;;;;;;;40.13;23.43;;;;;;;;;;4938350;29;20630;-80
2020/12/21 11:38:04;;;;;;;44.60;23.23;;;;;;;;;;4941338;29;20192;-81
2020/12/21 11:40:30;;;;;;;39.73;22.90;;;;;;;;;;4941422;29;20704;-81
2020/12/21 11:42:56;;;;;;;45.03;22.80;;;;;;;;;;4941582;29;20187;-81
2020/12/21 11:45:23;;;;;;;39.33;21.70;;;;;;;;;;4939601;29;20555;-80
2020/12/21 11:47:49;;;;;;;42.73;23.07;;;;;;;;;;4940769;29;20657;-80
2020/12/21 11:50:16;;;;;;;43.00;23.77;;;;;;;;;;4941714;29;20197;-80
2020/12/21 11:52:42;;;;;;;44.10;25.27;;;;;;;;;;4941994;29;20637;-81
2020/12/21 11:55:08;;;;;;;45.17;25.60;;;;;;;;;;4939682;29;20200;-81
2020/12/21 11:57:34;;;;;;;44.37;24.77;;;;;;;;;;4933291;29;20332;-81
2020/12/21 12:00:00;;;;;;;36.87;20.93;;;;;;;;;;4939620;29;20190;-81
2020/12/21 12:02:27;;;;;;;36.57;21.87;;;;;;;;;;4941603;29;20575;-81
2020/12/21 12:04:53;;;;;;;32.67;20.40;;;;;;;;;;4941643;29;20220;-80
2020/12/21 12:07:19;;;;;;;32.47;20.47;;;;;;;;;;4941505;29;20178;-80
2020/12/21 12:09:45;;;;;;;33.80;21.13;;;;;;;;;;4940969;29;20182;-81
2020/12/21 12:12:11;;;;;;;36.80;19.93;;;;;;;;;;4939792;29;20520;-81
2020/12/21 12:14:37;;;;;;;40.37;23.17;;;;;;;;;;4941314;29;20186;-80
2020/12/21 12:17:03;;;;;;;37.83;22.43;;;;;;;;;;4941480;29;20185;-81
2020/12/21 12:19:29;;;;;;;42.00;23.33;;;;;;;;;;4940599;29;20186;-80
2020/12/21 12:21:55;;;;;;;42.70;23.77;;;;;;;;;;4927037;29;20203;-80
2020/12/21 12:24:22;;;;;;;52.73;27.07;;;;;;;;;;4939195;29;20207;-80
2020/12/21 12:26:48;;;;;;;45.67;25.60;;;;;;;;;;4940282;29;20183;-81
2020/12/21 12:29:14;;;;;;;37.43;21.13;;;;;;;;;;4939399;29;20179;-81
2020/12/21 12:31:40;;;;;;;39.37;22.80;;;;;;;;;;4940508;29;20201;-82
2020/12/21 12:34:07;;;;;;;44.63;27.13;;;;;;;;;;4942449;29;20191;-81
2020/12/21 12:36:33;;;;;;;40.30;23.13;;;;;;;;;;4941813;29;20658;-81
2020/12/21 12:38:59;;;;;;;37.00;21.53;;;;;;;;;;4937451;29;20183;-81
2020/12/21 12:41:25;;;;;;;31.00;20.83;;;;;;;;;;4930934;29;20276;-81
2020/12/21 12:43:52;;;;;;;32.97;20.17;;;;;;;;;;4939516;29;20241;-79
2020/12/21 12:46:18;;;;;;;30.60;19.37;;;;;;;;;;4938208;29;20204;-81
2020/12/21 12:48:44;;;;;;;33.23;20.60;;;;;;;;;;4940241;29;20675;-82
2020/12/21 12:51:10;;;;;;;28.67;18.40;;;;;;;;;;4940403;29;20203;-80
2020/12/21 12:53:37;;;;;;;31.97;19.37;;;;;;;;;;4940234;29;20279;-80
2020/12/21 12:56:06;;;;;;;28.70;18.33;;;;;;;;;;4939547;29;20186;-81
2020/12/21 12:58:32;;;;;;;23.87;17.80;;;;;;;;;;4930059;29;20180;-81
2020/12/21 13:01:01;;;;;;;25.20;17.63;;;;;;;;;;4965056;23;20229;-80
2020/12/21 13:03:27;;;;;;;24.33;16.83;;;;;;;;;;4940454;29;20202;-80
2020/12/21 13:05:53;;;;;;;24.50;17.17;;;;;;;;;;4941431;29;20193;-80
2020/12/21 13:08:29;;;;;;;;;;;;;;;;;;;;;
2020/12/21 13:10:56;;;;;;;17.43;14.10;;;;;;;;;;4953543;28;20199;-81
2020/12/21 13:13:22;;;;;;;21.80;15.53;;;;;;;;;;4941985;29;20532;-80
2020/12/21 13:16:03;;;;;;;18.33;15.17;;;;;;;;;;4941241;29;20650;-79
2020/12/21 13:18:40;;;;;;;16.53;14.53;;;;;;;;;;4943251;29;20206;-80
2020/12/21 13:21:19;;;;;;;20.77;15.53;;;;;;;;;;4938366;29;20210;-80
2020/12/21 13:23:45;;;;;;;18.27;15.00;;;;;;;;;;4941847;29;20268;-80
2020/12/21 13:26:27;;;;;;;16.73;13.63;;;;;;;;;;4942644;29;20210;-80
2020/12/21 13:29:48;;;;;;;18.53;14.27;;;;;;;;;;4942979;29;20225;-80
2020/12/21 13:31:51;;;;;;;15.50;13.87;;;;;;;;;;4939431;29;20240;-80
2020/12/21 13:34:20;;;;;;;15.97;13.90;;;;;;;;;;4943696;29;20238;-80
2020/12/21 13:36:54;;;;;;;15.40;13.80;;;;;;;;;;4942226;29;20186;-80
2020/12/21 13:39:20;;;;;;;15.80;13.80;;;;;;;;;;4942616;29;20184;-80
2020/12/21 13:41:49;;;;;;;17.83;13.43;;;;;;;;;;4940604;29;20210;-80
2020/12/21 13:44:27;;;;;;;18.80;14.47;;;;;;;;;;4940061;29;20194;-79
2020/12/21 13:46:59;;;;;;;14.70;13.20;;;;;;;;;;4940248;29;20183;-80
2020/12/21 13:49:28;;;;;;;17.47;14.30;;;;;;;;;;4940809;29;20653;-80
2020/12/21 13:52:07;;;;;;;15.63;14.03;;;;;;;;;;4939081;29;20619;-80
2020/12/21 13:54:33;;;;;;;15.70;14.10;;;;;;;;;;4940447;29;20188;-79
2020/12/21 13:56:59;;;;;;;16.03;14.33;;;;;;;;;;4931303;29;20702;-78
2020/12/21 13:59:32;;;;;;;17.77;14.30;;;;;;;;;;4937873;29;20175;-80
2020/12/21 14:02:01;;;;;;;14.57;12.97;;;;;;;;;;4939986;29;20572;-80
2020/12/21 14:04:30;;;;;;;15.17;13.57;;;;;;;;;;4939766;29;20206;-80
2020/12/21 14:06:56;;;;;;;18.27;14.10;;;;;;;;;;4940558;29;20177;-80
2020/12/21 14:09:34;;;;;;;17.03;14.27;;;;;;;;;;4940900;29;20182;-80
2020/12/21 14:15:18;;;;;;;18.17;14.90;;;;;;;;;;4918883;29;20219;-79
2020/12/21 14:17:57;;;;;;;;;;;;;;;;;;;;;
2020/12/21 14:20:36;;;;;;;18.33;15.13;;;;;;;;;;4940191;29;20170;-79
2020/12/21 14:23:11;;;;;;;19.17;15.70;;;;;;;;;;4939057;29;20720;-79
2020/12/21 14:25:49;;;;;;;18.60;14.67;;;;;;;;;;4940061;29;20262;-80